createdAt,value
2017-12-06T00:01:22.086Z,11.57
2017-12-06T00:03:50.365Z,11.60
2017-12-06T00:06:18.682Z,12.20
2017-12-06T00:08:46.194Z,10.60
2017-12-06T00:11:13.707Z,11.07
2017-12-06T00:13:46.902Z,11.67
2017-12-06T00:16:14.411Z,11.10
2017-12-06T00:18:59.994Z,11.80
2017-12-06T00:21:28.270Z,10.97
2017-12-06T00:23:57.543Z,12.07
2017-12-06T00:26:25.053Z,12.17
2017-12-06T00:28:52.560Z,12.30
2017-12-06T00:31:20.850Z,11.30
2017-12-06T00:33:48.380Z,12.23
2017-12-06T00:36:15.872Z,11.37
2017-12-06T00:38:43.390Z,12.33
2017-12-06T00:41:10.880Z,13.43
2017-12-06T00:43:38.401Z,12.80
2017-12-06T00:46:05.890Z,13.20
2017-12-06T00:48:33.381Z,11.83
2017-12-06T00:51:01.650Z,12.47
2017-12-06T00:53:29.910Z,13.30
2017-12-06T00:55:57.419Z,14.37
2017-12-06T00:58:24.915Z,13.93
2017-12-06T01:00:52.426Z,13.53
2017-12-06T01:03:20.681Z,14.10
2017-12-06T01:05:48.933Z,14.23
2017-12-06T01:08:16.433Z,14.87
2017-12-06T01:10:43.926Z,13.70
2017-12-06T01:13:11.430Z,14.27
2017-12-06T01:15:40.704Z,13.27
2017-12-06T01:18:08.214Z,13.73
2017-12-06T01:20:35.721Z,14.40
2017-12-06T01:23:03.216Z,13.00
2017-12-06T01:25:31.488Z,14.30
2017-12-06T01:27:59.754Z,13.40
2017-12-06T01:30:27.262Z,14.27
2017-12-06T01:32:54.762Z,14.83
2017-12-06T01:35:22.284Z,14.73
2017-12-06T01:37:49.773Z,15.07
2017-12-06T01:40:17.262Z,16.20
2017-12-06T01:42:45.550Z,15.37
2017-12-06T01:45:13.077Z,15.13
2017-12-06T01:47:40.587Z,15.57
2017-12-06T01:50:08.082Z,16.50
2017-12-06T01:52:35.590Z,14.10
2017-12-06T01:55:03.094Z,15.10
2017-12-06T01:57:30.586Z,14.60
2017-12-06T01:59:58.859Z,15.30
2017-12-06T02:02:27.118Z,13.87
2017-12-06T02:04:54.621Z,13.93
2017-12-06T02:07:22.122Z,14.67
2017-12-06T02:09:49.629Z,13.93
2017-12-06T02:12:17.142Z,13.77
2017-12-06T02:14:44.634Z,15.20
2017-12-06T02:17:12.925Z,13.93
2017-12-06T02:19:41.178Z,13.00
2017-12-06T02:22:08.689Z,15.53
2017-12-06T02:24:36.182Z,13.50
2017-12-06T02:27:03.697Z,15.20
2017-12-06T02:29:31.197Z,13.67
2017-12-06T02:31:58.700Z,14.30
2017-12-06T02:34:26.221Z,13.03
2017-12-06T02:36:53.709Z,13.83
2017-12-06T02:39:21.977Z,13.70
2017-12-06T02:45:05.291Z,13.77
2017-12-06T02:47:32.777Z,13.40
2017-12-06T02:50:02.084Z,13.57
2017-12-06T02:52:30.358Z,14.00
2017-12-06T02:54:58.614Z,13.33
2017-12-06T02:57:26.128Z,13.07
2017-12-06T02:59:53.618Z,13.83
2017-12-06T03:02:21.121Z,12.80
2017-12-06T03:04:49.382Z,12.10
2017-12-06T03:07:16.893Z,12.20
2017-12-06T03:09:44.382Z,12.70
2017-12-06T03:12:11.870Z,12.63
2017-12-06T18:10:36.806Z,10.87
2017-12-06T18:13:04.315Z,10.50
2017-12-06T18:15:31.970Z,11.53
2017-12-06T18:18:00.241Z,16.10
2017-12-06T18:20:28.506Z,12.20
2017-12-06T18:22:56.822Z,14.47
2017-12-06T18:25:24.325Z,12.00
2017-12-06T18:27:51.862Z,13.60
2017-12-06T18:30:19.430Z,12.13
2017-12-06T18:32:46.946Z,12.60
2017-12-06T18:35:14.496Z,11.63
2017-12-06T18:37:42.015Z,13.75
2017-12-06T18:40:09.625Z,11.97
2017-12-06T18:42:37.125Z,11.80
2017-12-06T18:45:04.624Z,12.27
2017-12-06T18:47:32.905Z,13.90
2017-12-06T18:50:01.216Z,15.70
2017-12-06T18:52:28.726Z,12.60
2017-12-06T18:54:56.227Z,12.90
2017-12-06T18:57:23.733Z,11.30
2017-12-06T18:59:51.235Z,11.90
2017-12-06T19:02:18.787Z,11.40
2017-12-06T19:04:47.078Z,11.40
2017-12-06T19:07:14.578Z,11.60
2017-12-06T19:09:42.077Z,11.77
2017-12-06T19:12:10.351Z,13.63
2017-12-06T19:14:38.623Z,10.70
2017-12-06T19:17:06.874Z,13.20
2017-12-06T19:19:35.154Z,12.23
2017-12-06T19:22:02.651Z,11.67
2017-12-06T19:24:30.158Z,12.10
2017-12-06T19:26:57.766Z,13.60
2017-12-06T19:29:25.329Z,12.70
2017-12-06T19:31:52.857Z,12.90
2017-12-06T19:34:21.138Z,13.10
2017-12-06T19:36:48.690Z,13.30
2017-12-06T19:39:16.195Z,12.80
2017-12-06T19:41:44.546Z,17.00
2017-12-06T19:44:13.599Z,12.97
2017-12-06T19:46:41.127Z,12.67
2017-12-06T19:49:08.652Z,13.90
2017-12-06T19:51:36.925Z,17.90
2017-12-06T19:54:04.415Z,14.77
2017-12-06T19:56:31.982Z,12.83
2017-12-06T19:59:00.232Z,22.90
2017-12-06T20:01:28.569Z,23.03
2017-12-06T20:03:56.066Z,14.03
2017-12-06T20:06:24.335Z,15.83
2017-12-06T20:08:52.613Z,13.27
2017-12-06T20:11:20.953Z,15.20
2017-12-06T20:13:48.459Z,13.13
2017-12-06T20:16:16.764Z,22.50
2017-12-06T20:18:44.298Z,13.80
2017-12-06T20:21:12.610Z,27.67
2017-12-06T20:23:40.144Z,13.00
2017-12-06T20:26:08.543Z,15.20
2017-12-06T20:28:36.069Z,12.33
2017-12-06T20:31:04.326Z,11.53
2017-12-06T20:33:31.855Z,12.33
2017-12-06T20:35:59.377Z,13.20
2017-12-06T20:38:27.629Z,12.37
2017-12-06T20:40:55.133Z,11.80
2017-12-06T20:43:22.626Z,16.03
2017-12-06T20:45:51.114Z,12.63
2017-12-06T20:48:18.642Z,13.10
2017-12-06T20:50:47.197Z,12.00
2017-12-06T20:53:14.718Z,12.53
2017-12-06T20:55:42.382Z,12.00
2017-12-06T20:58:10.666Z,12.27
2017-12-06T21:00:38.211Z,10.67
2017-12-06T21:03:05.975Z,9.80
2017-12-06T21:05:33.468Z,10.77
2017-12-06T21:08:01.891Z,14.43
2017-12-06T21:10:29.387Z,10.70
2017-12-06T21:12:58.050Z,8.90
2017-12-06T21:15:25.582Z,8.80
2017-12-06T21:17:53.381Z,9.40
2017-12-06T21:20:20.887Z,9.03
2017-12-06T21:22:49.162Z,9.17
2017-12-06T21:25:16.685Z,12.80
2017-12-06T21:27:44.214Z,9.53
2017-12-06T21:30:11.722Z,9.47
2017-12-06T21:32:39.978Z,7.87
2017-12-06T21:35:07.482Z,6.00
2017-12-06T21:37:34.986Z,6.20
2017-12-06T21:40:02.490Z,6.10
2017-12-06T21:42:30.737Z,7.77
2017-12-06T21:44:58.232Z,6.73
2017-12-06T21:47:25.753Z,6.20
2017-12-06T21:49:53.242Z,19.43
2017-12-06T21:52:21.514Z,5.97
2017-12-06T21:54:49.820Z,6.90
2017-12-06T21:57:17.342Z,5.43
2017-12-06T21:59:45.619Z,8.37
2017-12-06T22:02:13.910Z,5.70
2017-12-06T22:04:42.350Z,5.80
2017-12-06T22:07:09.840Z,9.23
2017-12-06T22:09:38.117Z,5.80
2017-12-06T22:12:06.365Z,6.30
2017-12-06T22:14:33.861Z,9.40
2017-12-06T22:17:02.132Z,19.33
2017-12-06T22:19:30.408Z,6.43
2017-12-06T22:21:58.685Z,11.37
2017-12-06T22:24:26.246Z,10.00
2017-12-06T22:26:54.498Z,8.13
2017-12-06T22:29:22.001Z,8.93
2017-12-06T22:31:50.385Z,6.30
2017-12-06T22:34:17.888Z,5.77
2017-12-06T22:36:45.382Z,4.53
2017-12-06T23:36:13.706Z,7.22
2017-12-06T23:38:41.232Z,5.30
2017-12-06T23:41:08.731Z,5.10
2017-12-06T23:43:36.223Z,4.80
2017-12-06T23:46:04.498Z,6.17
2017-12-06T23:48:32.741Z,4.90
2017-12-06T23:51:00.255Z,4.93
2017-12-06T23:53:27.754Z,6.23
2017-12-06T23:55:55.246Z,5.67
2017-12-06T23:58:23.514Z,4.93
